sensor_id;sensor_type;location;lat;lon;timestamp;P1;durP1;ratioP1;P2;durP2;ratioP2
76640;SDS011;65538;50.798;6.064;2023-09-30T00:01:47;16.27;;;8.50;;
76640;SDS011;65538;50.798;6.064;2023-09-30T00:04:13;15.32;;;7.97;;
76640;SDS011;65538;50.798;6.064;2023-09-30T00:06:39;17.60;;;8.63;;
76640;SDS011;65538;50.798;6.064;2023-09-30T00:09:05;17.10;;;8.80;;
76640;SDS011;65538;50.798;6.064;2023-09-30T00:11:30;17.83;;;7.83;;
76640;SDS011;65538;50.798;6.064;2023-09-30T00:13:56;19.93;;;8.17;;
76640;SDS011;65538;50.798;6.064;2023-09-30T00:16:21;16.92;;;8.77;;
76640;SDS011;65538;50.798;6.064;2023-09-30T00:18:46;17.53;;;8.57;;
76640;SDS011;65538;50.798;6.064;2023-09-30T00:21:12;17.70;;;8.80;;
76640;SDS011;65538;50.798;6.064;2023-09-30T00:23:37;13.82;;;8.00;;
76640;SDS011;65538;50.798;6.064;2023-09-30T00:26:02;18.70;;;8.88;;
76640;SDS011;65538;50.798;6.064;2023-09-30T00:28:28;16.67;;;8.50;;
76640;SDS011;65538;50.798;6.064;2023-09-30T00:30:53;17.63;;;8.52;;
76640;SDS011;65538;50.798;6.064;2023-09-30T00:33:18;19.17;;;9.47;;
76640;SDS011;65538;50.798;6.064;2023-09-30T00:35:43;23.03;;;9.20;;
76640;SDS011;65538;50.798;6.064;2023-09-30T00:38:09;19.23;;;9.10;;
76640;SDS011;65538;50.798;6.064;2023-09-30T00:40:38;28.90;;;11.18;;
76640;SDS011;65538;50.798;6.064;2023-09-30T00:43:03;20.10;;;9.70;;
76640;SDS011;65538;50.798;6.064;2023-09-30T00:45:28;18.33;;;9.07;;
76640;SDS011;65538;50.798;6.064;2023-09-30T00:47:54;18.00;;;9.07;;
76640;SDS011;65538;50.798;6.064;2023-09-30T00:50:19;16.98;;;8.88;;
76640;SDS011;65538;50.798;6.064;2023-09-30T00:52:45;22.00;;;9.82;;
76640;SDS011;65538;50.798;6.064;2023-09-30T00:55:11;21.25;;;10.27;;
76640;SDS011;65538;50.798;6.064;2023-09-30T00:57:48;20.30;;;9.27;;
76640;SDS011;65538;50.798;6.064;2023-09-30T01:00:14;19.30;;;9.18;;
76640;SDS011;65538;50.798;6.064;2023-09-30T01:02:39;21.00;;;9.40;;
76640;SDS011;65538;50.798;6.064;2023-09-30T01:05:06;16.90;;;9.05;;
76640;SDS011;65538;50.798;6.064;2023-09-30T01:07:33;19.75;;;10.48;;
76640;SDS011;65538;50.798;6.064;2023-09-30T01:09:58;22.45;;;10.02;;
76640;SDS011;65538;50.798;6.064;2023-09-30T01:12:23;17.83;;;9.57;;
76640;SDS011;65538;50.798;6.064;2023-09-30T01:14:56;18.43;;;9.93;;
76640;SDS011;65538;50.798;6.064;2023-09-30T01:17:22;17.65;;;9.55;;
76640;SDS011;65538;50.798;6.064;2023-09-30T01:19:47;18.75;;;10.35;;
76640;SDS011;65538;50.798;6.064;2023-09-30T01:22:14;19.42;;;9.65;;
76640;SDS011;65538;50.798;6.064;2023-09-30T01:24:40;17.08;;;9.45;;
76640;SDS011;65538;50.798;6.064;2023-09-30T01:27:06;19.38;;;9.90;;
76640;SDS011;65538;50.798;6.064;2023-09-30T01:29:31;18.75;;;9.52;;
76640;SDS011;65538;50.798;6.064;2023-09-30T01:31:57;19.67;;;9.65;;
76640;SDS011;65538;50.798;6.064;2023-09-30T01:34:22;19.70;;;9.50;;
76640;SDS011;65538;50.798;6.064;2023-09-30T01:36:47;19.77;;;8.63;;
76640;SDS011;65538;50.798;6.064;2023-09-30T01:39:13;20.73;;;9.50;;
76640;SDS011;65538;50.798;6.064;2023-09-30T01:41:38;17.23;;;9.18;;
76640;SDS011;65538;50.798;6.064;2023-09-30T01:44:04;19.85;;;8.68;;
76640;SDS011;65538;50.798;6.064;2023-09-30T01:46:30;16.17;;;8.52;;
76640;SDS011;65538;50.798;6.064;2023-09-30T01:48:55;17.67;;;8.30;;
76640;SDS011;65538;50.798;6.064;2023-09-30T01:51:20;14.87;;;8.43;;
76640;SDS011;65538;50.798;6.064;2023-09-30T01:53:46;15.00;;;8.20;;
76640;SDS011;65538;50.798;6.064;2023-09-30T01:56:12;14.17;;;8.43;;
76640;SDS011;65538;50.798;6.064;2023-09-30T01:58:37;18.03;;;8.20;;
76640;SDS011;65538;50.798;6.064;2023-09-30T02:01:05;14.67;;;7.83;;
76640;SDS011;65538;50.798;6.064;2023-09-30T02:03:31;16.33;;;8.15;;
76640;SDS011;65538;50.798;6.064;2023-09-30T02:05:59;13.57;;;7.63;;
76640;SDS011;65538;50.798;6.064;2023-09-30T02:08:24;12.10;;;7.03;;
76640;SDS011;65538;50.798;6.064;2023-09-30T02:10:50;17.37;;;7.60;;
76640;SDS011;65538;50.798;6.064;2023-09-30T02:13:16;12.88;;;6.80;;
76640;SDS011;65538;50.798;6.064;2023-09-30T02:15:41;16.30;;;7.40;;
76640;SDS011;65538;50.798;6.064;2023-09-30T02:18:06;16.30;;;7.70;;
76640;SDS011;65538;50.798;6.064;2023-09-30T02:20:32;15.60;;;6.97;;
76640;SDS011;65538;50.798;6.064;2023-09-30T02:22:57;17.67;;;8.60;;
76640;SDS011;65538;50.798;6.064;2023-09-30T02:25:23;15.35;;;7.90;;
76640;SDS011;65538;50.798;6.064;2023-09-30T02:27:49;14.87;;;8.13;;
76640;SDS011;65538;50.798;6.064;2023-09-30T02:30:14;18.48;;;9.65;;
76640;SDS011;65538;50.798;6.064;2023-09-30T02:32:41;20.42;;;9.18;;
76640;SDS011;65538;50.798;6.064;2023-09-30T02:35:07;18.83;;;8.20;;
76640;SDS011;65538;50.798;6.064;2023-09-30T02:37:33;17.20;;;8.73;;
76640;SDS011;65538;50.798;6.064;2023-09-30T02:40:00;15.80;;;7.90;;
76640;SDS011;65538;50.798;6.064;2023-09-30T02:42:26;17.58;;;8.45;;
76640;SDS011;65538;50.798;6.064;2023-09-30T02:44:51;16.30;;;8.47;;
76640;SDS011;65538;50.798;6.064;2023-09-30T02:47:16;18.93;;;8.17;;
76640;SDS011;65538;50.798;6.064;2023-09-30T02:50:02;18.58;;;8.70;;
76640;SDS011;65538;50.798;6.064;2023-09-30T02:52:29;18.85;;;8.85;;
76640;SDS011;65538;50.798;6.064;2023-09-30T02:54:55;13.10;;;7.57;;
76640;SDS011;65538;50.798;6.064;2023-09-30T02:57:22;14.43;;;7.65;;
76640;SDS011;65538;50.798;6.064;2023-09-30T02:59:47;15.40;;;8.47;;
76640;SDS011;65538;50.798;6.064;2023-09-30T03:02:12;14.32;;;8.07;;
76640;SDS011;65538;50.798;6.064;2023-09-30T03:04:38;15.63;;;8.00;;
76640;SDS011;65538;50.798;6.064;2023-09-30T03:07:03;14.63;;;8.03;;
76640;SDS011;65538;50.798;6.064;2023-09-30T03:09:28;16.60;;;7.83;;
76640;SDS011;65538;50.798;6.064;2023-09-30T03:11:53;16.90;;;8.03;;
76640;SDS011;65538;50.798;6.064;2023-09-30T03:14:21;15.80;;;8.23;;
76640;SDS011;65538;50.798;6.064;2023-09-30T03:16:46;17.90;;;7.80;;
76640;SDS011;65538;50.798;6.064;2023-09-30T03:19:12;15.30;;;8.53;;
76640;SDS011;65538;50.798;6.064;2023-09-30T03:21:37;19.60;;;8.10;;
76640;SDS011;65538;50.798;6.064;2023-09-30T03:24:03;17.73;;;9.33;;
76640;SDS011;65538;50.798;6.064;2023-09-30T03:26:29;28.90;;;14.15;;
76640;SDS011;65538;50.798;6.064;2023-09-30T03:28:54;21.75;;;9.77;;
76640;SDS011;65538;50.798;6.064;2023-09-30T03:31:20;19.63;;;10.30;;
76640;SDS011;65538;50.798;6.064;2023-09-30T03:33:45;16.73;;;8.27;;
76640;SDS011;65538;50.798;6.064;2023-09-30T03:36:11;17.50;;;7.72;;
76640;SDS011;65538;50.798;6.064;2023-09-30T03:38:36;16.77;;;7.93;;
76640;SDS011;65538;50.798;6.064;2023-09-30T03:41:02;13.73;;;7.17;;
76640;SDS011;65538;50.798;6.064;2023-09-30T03:43:27;15.50;;;7.80;;
76640;SDS011;65538;50.798;6.064;2023-09-30T03:45:52;23.90;;;11.60;;
76640;SDS011;65538;50.798;6.064;2023-09-30T03:48:18;28.02;;;13.75;;
76640;SDS011;65538;50.798;6.064;2023-09-30T03:50:44;18.07;;;7.60;;
76640;SDS011;65538;50.798;6.064;2023-09-30T03:53:18;22.00;;;8.55;;
76640;SDS011;65538;50.798;6.064;2023-09-30T03:55:44;16.02;;;7.85;;
76640;SDS011;65538;50.798;6.064;2023-09-30T03:58:10;16.20;;;7.10;;
76640;SDS011;65538;50.798;6.064;2023-09-30T04:00:35;15.93;;;7.50;;
76640;SDS011;65538;50.798;6.064;2023-09-30T04:03:01;14.37;;;7.47;;
76640;SDS011;65538;50.798;6.064;2023-09-30T04:05:27;16.05;;;7.15;;
76640;SDS011;65538;50.798;6.064;2023-09-30T04:07:59;13.93;;;7.45;;
76640;SDS011;65538;50.798;6.064;2023-09-30T04:10:24;22.73;;;12.03;;
76640;SDS011;65538;50.798;6.064;2023-09-30T04:12:50;20.05;;;10.20;;
76640;SDS011;65538;50.798;6.064;2023-09-30T04:15:15;13.25;;;7.50;;
76640;SDS011;65538;50.798;6.064;2023-09-30T04:17:41;21.13;;;8.93;;
76640;SDS011;65538;50.798;6.064;2023-09-30T04:20:06;22.50;;;9.03;;
76640;SDS011;65538;50.798;6.064;2023-09-30T04:22:34;13.82;;;7.07;;
76640;SDS011;65538;50.798;6.064;2023-09-30T04:25:00;14.68;;;8.10;;
76640;SDS011;65538;50.798;6.064;2023-09-30T04:27:25;15.13;;;7.20;;
76640;SDS011;65538;50.798;6.064;2023-09-30T04:29:52;15.43;;;7.53;;
76640;SDS011;65538;50.798;6.064;2023-09-30T04:32:17;19.70;;;8.27;;
76640;SDS011;65538;50.798;6.064;2023-09-30T04:34:42;20.97;;;8.97;;
76640;SDS011;65538;50.798;6.064;2023-09-30T04:37:08;16.48;;;8.38;;
76640;SDS011;65538;50.798;6.064;2023-09-30T04:39:34;15.63;;;7.57;;
76640;SDS011;65538;50.798;6.064;2023-09-30T04:42:00;18.33;;;8.38;;
76640;SDS011;65538;50.798;6.064;2023-09-30T04:44:26;13.93;;;6.88;;
76640;SDS011;65538;50.798;6.064;2023-09-30T04:46:55;25.17;;;10.93;;
76640;SDS011;65538;50.798;6.064;2023-09-30T04:49:21;22.30;;;10.07;;
76640;SDS011;65538;50.798;6.064;2023-09-30T04:51:46;22.43;;;10.47;;
76640;SDS011;65538;50.798;6.064;2023-09-30T04:54:13;16.95;;;8.30;;
76640;SDS011;65538;50.798;6.064;2023-09-30T04:56:39;18.17;;;7.93;;
76640;SDS011;65538;50.798;6.064;2023-09-30T04:59:04;20.07;;;8.60;;
76640;SDS011;65538;50.798;6.064;2023-09-30T05:01:29;14.13;;;7.20;;
76640;SDS011;65538;50.798;6.064;2023-09-30T05:03:54;18.50;;;8.93;;
76640;SDS011;65538;50.798;6.064;2023-09-30T05:06:19;17.00;;;8.00;;
76640;SDS011;65538;50.798;6.064;2023-09-30T05:08:46;18.05;;;9.20;;
76640;SDS011;65538;50.798;6.064;2023-09-30T05:11:12;16.45;;;8.02;;
76640;SDS011;65538;50.798;6.064;2023-09-30T05:13:37;14.70;;;7.17;;
76640;SDS011;65538;50.798;6.064;2023-09-30T05:16:03;15.13;;;7.70;;
76640;SDS011;65538;50.798;6.064;2023-09-30T05:18:28;18.67;;;7.40;;
76640;SDS011;65538;50.798;6.064;2023-09-30T05:20:54;17.80;;;7.57;;
76640;SDS011;65538;50.798;6.064;2023-09-30T05:23:19;16.60;;;7.40;;
76640;SDS011;65538;50.798;6.064;2023-09-30T05:25:44;12.57;;;6.37;;
76640;SDS011;65538;50.798;6.064;2023-09-30T05:28:11;14.55;;;6.90;;
76640;SDS011;65538;50.798;6.064;2023-09-30T05:30:38;15.57;;;7.47;;
76640;SDS011;65538;50.798;6.064;2023-09-30T05:33:04;12.32;;;6.95;;
76640;SDS011;65538;50.798;6.064;2023-09-30T05:35:29;12.83;;;6.60;;
76640;SDS011;65538;50.798;6.064;2023-09-30T05:37:57;13.23;;;7.03;;
76640;SDS011;65538;50.798;6.064;2023-09-30T05:40:22;16.10;;;7.50;;
76640;SDS011;65538;50.798;6.064;2023-09-30T05:42:50;14.98;;;7.03;;
76640;SDS011;65538;50.798;6.064;2023-09-30T05:45:15;12.13;;;6.07;;
76640;SDS011;65538;50.798;6.064;2023-09-30T05:47:41;13.70;;;7.43;;
76640;SDS011;65538;50.798;6.064;2023-09-30T05:50:06;13.18;;;6.78;;
76640;SDS011;65538;50.798;6.064;2023-09-30T05:52:32;13.00;;;7.13;;
76640;SDS011;65538;50.798;6.064;2023-09-30T05:54:58;13.43;;;7.13;;
76640;SDS011;65538;50.798;6.064;2023-09-30T05:57:25;13.50;;;6.55;;
76640;SDS011;65538;50.798;6.064;2023-09-30T05:59:51;13.57;;;7.03;;
76640;SDS011;65538;50.798;6.064;2023-09-30T06:02:16;13.57;;;6.67;;
76640;SDS011;65538;50.798;6.064;2023-09-30T06:04:41;15.23;;;6.20;;
76640;SDS011;65538;50.798;6.064;2023-09-30T06:07:07;11.80;;;6.33;;
76640;SDS011;65538;50.798;6.064;2023-09-30T06:09:36;13.90;;;6.75;;
76640;SDS011;65538;50.798;6.064;2023-09-30T06:12:01;12.18;;;6.00;;
76640;SDS011;65538;50.798;6.064;2023-09-30T06:14:28;15.73;;;6.25;;
76640;SDS011;65538;50.798;6.064;2023-09-30T06:16:55;11.45;;;5.82;;
76640;SDS011;65538;50.798;6.064;2023-09-30T06:19:21;13.20;;;6.13;;
76640;SDS011;65538;50.798;6.064;2023-09-30T06:21:46;11.43;;;5.83;;
76640;SDS011;65538;50.798;6.064;2023-09-30T06:24:12;11.52;;;6.25;;
76640;SDS011;65538;50.798;6.064;2023-09-30T06:26:37;16.73;;;6.87;;
76640;SDS011;65538;50.798;6.064;2023-09-30T06:29:02;12.47;;;6.10;;
76640;SDS011;65538;50.798;6.064;2023-09-30T06:31:28;13.88;;;6.53;;
76640;SDS011;65538;50.798;6.064;2023-09-30T06:33:53;15.00;;;6.97;;
76640;SDS011;65538;50.798;6.064;2023-09-30T06:36:23;14.50;;;6.60;;
76640;SDS011;65538;50.798;6.064;2023-09-30T06:38:48;14.17;;;6.00;;
76640;SDS011;65538;50.798;6.064;2023-09-30T06:41:16;14.32;;;7.40;;
76640;SDS011;65538;50.798;6.064;2023-09-30T06:43:41;17.88;;;6.95;;
76640;SDS011;65538;50.798;6.064;2023-09-30T06:46:07;11.47;;;5.87;;
76640;SDS011;65538;50.798;6.064;2023-09-30T06:48:38;13.10;;;6.93;;
76640;SDS011;65538;50.798;6.064;2023-09-30T06:51:05;13.90;;;6.70;;
76640;SDS011;65538;50.798;6.064;2023-09-30T06:53:30;16.10;;;6.80;;
76640;SDS011;65538;50.798;6.064;2023-09-30T06:55:55;14.80;;;7.37;;
76640;SDS011;65538;50.798;6.064;2023-09-30T06:58:21;11.27;;;6.30;;
76640;SDS011;65538;50.798;6.064;2023-09-30T07:00:49;8.90;;;4.50;;
76640;SDS011;65538;50.798;6.064;2023-09-30T07:03:15;11.88;;;4.88;;
76640;SDS011;65538;50.798;6.064;2023-09-30T07:05:40;10.30;;;4.72;;
76640;SDS011;65538;50.798;6.064;2023-09-30T07:08:06;10.95;;;4.80;;
76640;SDS011;65538;50.798;6.064;2023-09-30T07:10:31;7.15;;;4.25;;
76640;SDS011;65538;50.798;6.064;2023-09-30T07:12:57;10.17;;;5.47;;
76640;SDS011;65538;50.798;6.064;2023-09-30T07:15:22;8.52;;;4.43;;
76640;SDS011;65538;50.798;6.064;2023-09-30T07:17:47;9.27;;;4.30;;
76640;SDS011;65538;50.798;6.064;2023-09-30T07:20:13;8.80;;;4.07;;
76640;SDS011;65538;50.798;6.064;2023-09-30T07:22:38;8.20;;;3.65;;
76640;SDS011;65538;50.798;6.064;2023-09-30T07:25:04;8.73;;;3.57;;
76640;SDS011;65538;50.798;6.064;2023-09-30T07:27:29;7.80;;;3.03;;
76640;SDS011;65538;50.798;6.064;2023-09-30T07:29:54;6.83;;;3.03;;
76640;SDS011;65538;50.798;6.064;2023-09-30T07:32:19;6.30;;;3.10;;
76640;SDS011;65538;50.798;6.064;2023-09-30T07:34:48;6.88;;;3.17;;
76640;SDS011;65538;50.798;6.064;2023-09-30T07:37:13;6.53;;;3.07;;
76640;SDS011;65538;50.798;6.064;2023-09-30T07:39:39;7.97;;;2.83;;
76640;SDS011;65538;50.798;6.064;2023-09-30T07:42:04;5.97;;;2.45;;
76640;SDS011;65538;50.798;6.064;2023-09-30T07:44:30;6.90;;;2.57;;
76640;SDS011;65538;50.798;6.064;2023-09-30T07:46:57;7.22;;;2.00;;
76640;SDS011;65538;50.798;6.064;2023-09-30T07:49:22;4.80;;;1.90;;
76640;SDS011;65538;50.798;6.064;2023-09-30T07:51:48;12.05;;;2.85;;
76640;SDS011;65538;50.798;6.064;2023-09-30T07:54:14;8.00;;;2.03;;
76640;SDS011;65538;50.798;6.064;2023-09-30T07:56:39;6.37;;;1.80;;
76640;SDS011;65538;50.798;6.064;2023-09-30T07:59:04;4.00;;;1.60;;
76640;SDS011;65538;50.798;6.064;2023-09-30T08:01:30;5.53;;;2.27;;
76640;SDS011;65538;50.798;6.064;2023-09-30T08:03:55;5.82;;;2.08;;
76640;SDS011;65538;50.798;6.064;2023-09-30T08:06:21;5.65;;;1.92;;
76640;SDS011;65538;50.798;6.064;2023-09-30T08:08:46;6.67;;;3.00;;
76640;SDS011;65538;50.798;6.064;2023-09-30T08:11:12;6.20;;;2.20;;
76640;SDS011;65538;50.798;6.064;2023-09-30T08:13:37;3.83;;;1.70;;
76640;SDS011;65538;50.798;6.064;2023-09-30T08:16:03;5.33;;;2.50;;
76640;SDS011;65538;50.798;6.064;2023-09-30T08:18:28;6.03;;;2.00;;
76640;SDS011;65538;50.798;6.064;2023-09-30T08:20:53;6.63;;;2.13;;
76640;SDS011;65538;50.798;6.064;2023-09-30T08:23:18;6.50;;;2.17;;
76640;SDS011;65538;50.798;6.064;2023-09-30T08:25:43;4.20;;;1.63;;
76640;SDS011;65538;50.798;6.064;2023-09-30T08:28:09;4.65;;;2.00;;
76640;SDS011;65538;50.798;6.064;2023-09-30T08:30:37;4.60;;;2.22;;
76640;SDS011;65538;50.798;6.064;2023-09-30T08:33:03;5.32;;;2.10;;
76640;SDS011;65538;50.798;6.064;2023-09-30T08:35:38;5.53;;;2.25;;
76640;SDS011;65538;50.798;6.064;2023-09-30T08:38:03;5.57;;;2.42;;
76640;SDS011;65538;50.798;6.064;2023-09-30T08:40:29;4.50;;;2.33;;
76640;SDS011;65538;50.798;6.064;2023-09-30T08:42:54;5.40;;;2.10;;
76640;SDS011;65538;50.798;6.064;2023-09-30T08:45:19;6.77;;;2.20;;
76640;SDS011;65538;50.798;6.064;2023-09-30T08:47:45;6.07;;;2.03;;
76640;SDS011;65538;50.798;6.064;2023-09-30T08:50:11;5.03;;;1.80;;
76640;SDS011;65538;50.798;6.064;2023-09-30T08:52:40;6.50;;;2.30;;
76640;SDS011;65538;50.798;6.064;2023-09-30T08:57:31;7.65;;;1.85;;
76640;SDS011;65538;50.798;6.064;2023-09-30T08:59:57;5.05;;;1.55;;
76640;SDS011;65538;50.798;6.064;2023-09-30T09:02:23;9.85;;;2.28;;
76640;SDS011;65538;50.798;6.064;2023-09-30T09:04:48;7.25;;;2.00;;
76640;SDS011;65538;50.798;6.064;2023-09-30T09:07:14;5.53;;;1.90;;
76640;SDS011;65538;50.798;6.064;2023-09-30T09:09:39;4.53;;;1.60;;
76640;SDS011;65538;50.798;6.064;2023-09-30T09:12:05;7.57;;;2.37;;
76640;SDS011;65538;50.798;6.064;2023-09-30T09:14:37;8.65;;;1.98;;
76640;SDS011;65538;50.798;6.064;2023-09-30T09:17:03;5.32;;;2.10;;
76640;SDS011;65538;50.798;6.064;2023-09-30T09:19:29;8.48;;;1.95;;
76640;SDS011;65538;50.798;6.064;2023-09-30T09:21:56;7.30;;;1.97;;
76640;SDS011;65538;50.798;6.064;2023-09-30T09:27:03;7.20;;;1.83;;
76640;SDS011;65538;50.798;6.064;2023-09-30T09:29:28;7.35;;;1.88;;
76640;SDS011;65538;50.798;6.064;2023-09-30T09:31:53;12.93;;;1.67;;
76640;SDS011;65538;50.798;6.064;2023-09-30T09:34:31;5.40;;;1.85;;
76640;SDS011;65538;50.798;6.064;2023-09-30T09:36:56;8.70;;;2.27;;
76640;SDS011;65538;50.798;6.064;2023-09-30T09:39:28;5.30;;;1.48;;
76640;SDS011;65538;50.798;6.064;2023-09-30T09:41:55;5.20;;;1.50;;
76640;SDS011;65538;50.798;6.064;2023-09-30T09:44:22;6.00;;;1.75;;
76640;SDS011;65538;50.798;6.064;2023-09-30T09:46:48;6.75;;;2.00;;
76640;SDS011;65538;50.798;6.064;2023-09-30T09:49:15;6.88;;;2.10;;
76640;SDS011;65538;50.798;6.064;2023-09-30T09:51:41;6.13;;;2.00;;
76640;SDS011;65538;50.798;6.064;2023-09-30T09:54:08;6.93;;;2.10;;
76640;SDS011;65538;50.798;6.064;2023-09-30T09:56:34;5.95;;;2.20;;
76640;SDS011;65538;50.798;6.064;2023-09-30T09:58:59;6.10;;;2.17;;
76640;SDS011;65538;50.798;6.064;2023-09-30T10:01:26;7.38;;;2.45;;
76640;SDS011;65538;50.798;6.064;2023-09-30T10:03:51;10.63;;;2.50;;
76640;SDS011;65538;50.798;6.064;2023-09-30T10:06:16;8.40;;;2.40;;
76640;SDS011;65538;50.798;6.064;2023-09-30T10:08:42;6.40;;;2.53;;
76640;SDS011;65538;50.798;6.064;2023-09-30T10:11:09;7.53;;;2.33;;
76640;SDS011;65538;50.798;6.064;2023-09-30T10:13:54;8.68;;;2.90;;
76640;SDS011;65538;50.798;6.064;2023-09-30T10:19:10;6.82;;;2.75;;
76640;SDS011;65538;50.798;6.064;2023-09-30T10:21:36;10.13;;;3.33;;
76640;SDS011;65538;50.798;6.064;2023-09-30T10:33:28;7.32;;;2.10;;
76640;SDS011;65538;50.798;6.064;2023-09-30T10:42:50;7.35;;;2.85;;
76640;SDS011;65538;50.798;6.064;2023-09-30T11:18:13;9.73;;;3.72;;
76640;SDS011;65538;50.798;6.064;2023-09-30T11:21:10;9.63;;;5.25;;
76640;SDS011;65538;50.798;6.064;2023-09-30T11:26:43;12.00;;;3.55;;
76640;SDS011;65538;50.798;6.064;2023-09-30T11:29:18;9.43;;;3.67;;
76640;SDS011;65538;50.798;6.064;2023-09-30T11:31:45;11.07;;;4.75;;
76640;SDS011;65538;50.798;6.064;2023-09-30T11:34:39;10.65;;;4.65;;
76640;SDS011;65538;50.798;6.064;2023-09-30T11:37:13;8.80;;;3.65;;
76640;SDS011;65538;50.798;6.064;2023-09-30T11:45:35;12.13;;;4.88;;
76640;SDS011;65538;50.798;6.064;2023-09-30T11:51:41;8.98;;;4.43;;
76640;SDS011;65538;50.798;6.064;2023-09-30T11:57:10;8.07;;;3.60;;
76640;SDS011;65538;50.798;6.064;2023-09-30T11:59:54;9.98;;;4.18;;
76640;SDS011;65538;50.798;6.064;2023-09-30T12:02:23;8.88;;;3.40;;
76640;SDS011;65538;50.798;6.064;2023-09-30T12:04:56;8.55;;;4.05;;
76640;SDS011;65538;50.798;6.064;2023-09-30T12:07:23;8.45;;;3.72;;
76640;SDS011;65538;50.798;6.064;2023-09-30T12:09:48;8.90;;;3.93;;
76640;SDS011;65538;50.798;6.064;2023-09-30T12:12:34;9.53;;;4.87;;
76640;SDS011;65538;50.798;6.064;2023-09-30T12:14:59;7.40;;;3.30;;
76640;SDS011;65538;50.798;6.064;2023-09-30T12:17:35;7.57;;;4.18;;
76640;SDS011;65538;50.798;6.064;2023-09-30T12:20:10;7.13;;;3.85;;
76640;SDS011;65538;50.798;6.064;2023-09-30T12:22:49;8.38;;;3.85;;
76640;SDS011;65538;50.798;6.064;2023-09-30T12:25:22;9.00;;;3.50;;
76640;SDS011;65538;50.798;6.064;2023-09-30T12:27:50;10.45;;;4.40;;
76640;SDS011;65538;50.798;6.064;2023-09-30T12:30:20;9.48;;;4.05;;
76640;SDS011;65538;50.798;6.064;2023-09-30T12:32:46;7.57;;;4.35;;
76640;SDS011;65538;50.798;6.064;2023-09-30T12:35:16;9.45;;;4.75;;
76640;SDS011;65538;50.798;6.064;2023-09-30T12:37:44;8.75;;;4.57;;
76640;SDS011;65538;50.798;6.064;2023-09-30T12:40:12;9.25;;;4.07;;
76640;SDS011;65538;50.798;6.064;2023-09-30T12:42:44;10.45;;;4.55;;
76640;SDS011;65538;50.798;6.064;2023-09-30T12:47:50;9.27;;;5.05;;
76640;SDS011;65538;50.798;6.064;2023-09-30T12:50:31;9.57;;;4.63;;
76640;SDS011;65538;50.798;6.064;2023-09-30T12:52:57;12.88;;;5.43;;
76640;SDS011;65538;50.798;6.064;2023-09-30T12:55:24;7.78;;;4.13;;
76640;SDS011;65538;50.798;6.064;2023-09-30T12:58:18;9.27;;;4.28;;
76640;SDS011;65538;50.798;6.064;2023-09-30T13:00:42;7.53;;;3.97;;
76640;SDS011;65538;50.798;6.064;2023-09-30T13:03:14;7.65;;;3.83;;
76640;SDS011;65538;50.798;6.064;2023-09-30T13:05:49;10.15;;;4.40;;
76640;SDS011;65538;50.798;6.064;2023-09-30T13:08:18;7.85;;;4.60;;
76640;SDS011;65538;50.798;6.064;2023-09-30T13:11:08;9.27;;;4.35;;
76640;SDS011;65538;50.798;6.064;2023-09-30T13:14:22;9.60;;;4.80;;
76640;SDS011;65538;50.798;6.064;2023-09-30T13:16:47;9.00;;;4.18;;
76640;SDS011;65538;50.798;6.064;2023-09-30T13:19:23;10.38;;;5.53;;
76640;SDS011;65538;50.798;6.064;2023-09-30T13:22:02;10.82;;;5.22;;
76640;SDS011;65538;50.798;6.064;2023-09-30T13:24:33;7.50;;;3.97;;
76640;SDS011;65538;50.798;6.064;2023-09-30T13:27:18;12.15;;;4.40;;
76640;SDS011;65538;50.798;6.064;2023-09-30T13:29:49;9.43;;;4.47;;
76640;SDS011;65538;50.798;6.064;2023-09-30T13:32:15;9.30;;;4.47;;
76640;SDS011;65538;50.798;6.064;2023-09-30T13:34:51;7.88;;;4.18;;
76640;SDS011;65538;50.798;6.064;2023-09-30T13:37:16;7.70;;;4.43;;
76640;SDS011;65538;50.798;6.064;2023-09-30T13:39:48;9.18;;;4.82;;
76640;SDS011;65538;50.798;6.064;2023-09-30T13:42:15;9.80;;;4.68;;
76640;SDS011;65538;50.798;6.064;2023-09-30T13:44:40;7.60;;;4.82;;
76640;SDS011;65538;50.798;6.064;2023-09-30T13:47:12;7.82;;;4.75;;
76640;SDS011;65538;50.798;6.064;2023-09-30T13:49:46;7.00;;;3.83;;
76640;SDS011;65538;50.798;6.064;2023-09-30T13:52:18;9.00;;;4.03;;
76640;SDS011;65538;50.798;6.064;2023-09-30T13:54:51;9.15;;;3.90;;
76640;SDS011;65538;50.798;6.064;2023-09-30T13:57:16;8.97;;;3.77;;
76640;SDS011;65538;50.798;6.064;2023-09-30T13:59:42;7.43;;;3.83;;
76640;SDS011;65538;50.798;6.064;2023-09-30T14:05:13;8.05;;;4.30;;
76640;SDS011;65538;50.798;6.064;2023-09-30T14:07:38;7.10;;;3.60;;
76640;SDS011;65538;50.798;6.064;2023-09-30T14:10:05;7.43;;;3.60;;
76640;SDS011;65538;50.798;6.064;2023-09-30T14:12:30;8.23;;;3.92;;
76640;SDS011;65538;50.798;6.064;2023-09-30T14:14:56;7.07;;;3.90;;
76640;SDS011;65538;50.798;6.064;2023-09-30T14:17:21;8.50;;;3.90;;
76640;SDS011;65538;50.798;6.064;2023-09-30T14:19:47;8.70;;;3.90;;
76640;SDS011;65538;50.798;6.064;2023-09-30T14:22:12;8.67;;;3.67;;
76640;SDS011;65538;50.798;6.064;2023-09-30T14:24:37;6.50;;;3.40;;
76640;SDS011;65538;50.798;6.064;2023-09-30T14:27:02;6.57;;;3.30;;
76640;SDS011;65538;50.798;6.064;2023-09-30T14:29:31;8.43;;;3.50;;
76640;SDS011;65538;50.798;6.064;2023-09-30T14:31:57;6.47;;;3.47;;
76640;SDS011;65538;50.798;6.064;2023-09-30T14:34:25;8.35;;;3.83;;
76640;SDS011;65538;50.798;6.064;2023-09-30T14:36:51;7.85;;;3.60;;
76640;SDS011;65538;50.798;6.064;2023-09-30T14:39:16;9.65;;;3.95;;
76640;SDS011;65538;50.798;6.064;2023-09-30T14:41:44;7.33;;;3.53;;
76640;SDS011;65538;50.798;6.064;2023-09-30T14:44:09;8.00;;;3.30;;
76640;SDS011;65538;50.798;6.064;2023-09-30T14:46:42;8.23;;;3.67;;
76640;SDS011;65538;50.798;6.064;2023-09-30T14:49:11;8.50;;;3.72;;
76640;SDS011;65538;50.798;6.064;2023-09-30T14:57:40;6.90;;;4.22;;
76640;SDS011;65538;50.798;6.064;2023-09-30T15:00:06;5.97;;;2.80;;
76640;SDS011;65538;50.798;6.064;2023-09-30T15:02:31;6.88;;;3.05;;
76640;SDS011;65538;50.798;6.064;2023-09-30T15:04:57;8.27;;;3.50;;
76640;SDS011;65538;50.798;6.064;2023-09-30T15:07:25;4.93;;;3.03;;
76640;SDS011;65538;50.798;6.064;2023-09-30T15:09:50;13.52;;;3.88;;
76640;SDS011;65538;50.798;6.064;2023-09-30T15:12:17;7.30;;;3.30;;
76640;SDS011;65538;50.798;6.064;2023-09-30T15:17:51;8.48;;;3.53;;
76640;SDS011;65538;50.798;6.064;2023-09-30T15:20:19;8.73;;;3.92;;
76640;SDS011;65538;50.798;6.064;2023-09-30T15:22:45;8.43;;;3.97;;
76640;SDS011;65538;50.798;6.064;2023-09-30T15:25:10;8.00;;;3.63;;
76640;SDS011;65538;50.798;6.064;2023-09-30T15:27:35;9.00;;;3.73;;
76640;SDS011;65538;50.798;6.064;2023-09-30T15:30:01;10.27;;;4.13;;
76640;SDS011;65538;50.798;6.064;2023-09-30T15:32:27;6.63;;;3.45;;
76640;SDS011;65538;50.798;6.064;2023-09-30T15:34:53;7.20;;;3.20;;
76640;SDS011;65538;50.798;6.064;2023-09-30T15:37:21;9.57;;;3.78;;
76640;SDS011;65538;50.798;6.064;2023-09-30T15:39:49;8.27;;;3.77;;
76640;SDS011;65538;50.798;6.064;2023-09-30T15:42:17;10.18;;;3.05;;
76640;SDS011;65538;50.798;6.064;2023-09-30T15:44:42;8.83;;;3.73;;
76640;SDS011;65538;50.798;6.064;2023-09-30T15:47:08;8.47;;;3.90;;
76640;SDS011;65538;50.798;6.064;2023-09-30T15:49:33;8.07;;;4.20;;
76640;SDS011;65538;50.798;6.064;2023-09-30T15:51:59;7.50;;;3.50;;
76640;SDS011;65538;50.798;6.064;2023-09-30T15:54:24;10.88;;;3.60;;
76640;SDS011;65538;50.798;6.064;2023-09-30T15:56:50;11.47;;;3.40;;
76640;SDS011;65538;50.798;6.064;2023-09-30T15:59:15;7.27;;;3.03;;
76640;SDS011;65538;50.798;6.064;2023-09-30T16:01:40;7.90;;;3.50;;
76640;SDS011;65538;50.798;6.064;2023-09-30T16:04:05;7.73;;;3.70;;
76640;SDS011;65538;50.798;6.064;2023-09-30T16:06:31;8.25;;;4.03;;
76640;SDS011;65538;50.798;6.064;2023-09-30T16:08:57;9.27;;;3.95;;